createdAt,value
2018-07-16T00:00:13.085Z,1.20
2018-07-16T00:02:40.333Z,1.00
2018-07-16T00:05:08.706Z,0.90
2018-07-16T00:07:36.010Z,0.87
2018-07-16T00:10:03.366Z,1.10
2018-07-16T00:12:30.650Z,1.30
2018-07-16T00:14:57.918Z,1.17
2018-07-16T00:20:15.226Z,1.23
2018-07-16T00:22:42.698Z,1.10
2018-07-16T00:25:09.975Z,1.00
2018-07-16T00:27:37.203Z,1.20
2018-07-16T00:30:04.684Z,1.03
2018-07-16T00:32:31.914Z,1.30
2018-07-16T00:34:59.185Z,0.90
2018-07-16T00:37:26.425Z,1.17
2018-07-16T00:39:53.720Z,1.37
2018-07-16T00:42:20.978Z,1.10
2018-07-16T00:44:48.214Z,1.00
2018-07-16T00:47:15.539Z,1.00
2018-07-16T00:49:42.742Z,1.07
2018-07-16T00:52:10.066Z,1.47
2018-07-16T00:54:37.301Z,1.13
2018-07-16T00:57:04.738Z,1.20
2018-07-16T00:59:31.978Z,0.90
2018-07-16T01:01:59.218Z,1.10
2018-07-16T01:04:26.446Z,1.33
2018-07-16T01:06:53.747Z,1.30
2018-07-16T01:09:21.021Z,1.07
2018-07-16T01:11:48.433Z,1.30
2018-07-16T01:14:15.678Z,1.10
2018-07-16T01:16:42.938Z,1.23
2018-07-16T01:19:10.161Z,1.43
2018-07-16T01:21:37.437Z,1.13
2018-07-16T01:24:04.931Z,1.60
2018-07-16T01:26:32.179Z,1.50
2018-07-16T01:28:59.435Z,1.07
2018-07-16T01:31:26.670Z,1.50
2018-07-16T01:33:53.930Z,1.50
2018-07-16T01:36:21.181Z,1.20
2018-07-16T01:38:48.443Z,1.33
2018-07-16T01:41:15.687Z,1.17
2018-07-16T01:43:42.978Z,1.10
2018-07-16T01:46:10.300Z,1.13
2018-07-16T01:48:37.525Z,1.50
2018-07-16T01:51:04.775Z,1.20
2018-07-16T01:53:32.019Z,1.50
2018-07-16T01:55:59.312Z,1.40
2018-07-16T01:58:26.537Z,1.37
2018-07-16T02:00:57.650Z,1.17
2018-07-16T02:03:27.533Z,1.60
2018-07-16T02:05:54.800Z,1.10
2018-07-16T02:08:22.765Z,1.47
2018-07-16T02:10:50.089Z,1.30
2018-07-16T02:13:17.455Z,1.20
2018-07-16T02:15:44.778Z,1.13
2018-07-16T02:18:12.684Z,1.00
2018-07-16T02:20:39.926Z,1.20
2018-07-16T02:23:07.194Z,1.20
2018-07-16T02:25:34.438Z,2.10
2018-07-16T02:28:01.699Z,1.00
2018-07-16T02:30:28.982Z,1.17
2018-07-16T02:32:56.211Z,1.17
2018-07-16T02:35:23.479Z,1.37
2018-07-16T02:37:50.717Z,1.30
2018-07-16T02:40:18.046Z,1.30
2018-07-16T02:42:45.274Z,1.50
2018-07-16T02:45:12.577Z,1.40
2018-07-16T02:47:40.039Z,1.60
2018-07-16T02:50:07.706Z,1.50
2018-07-16T02:52:34.983Z,1.27
2018-07-16T02:55:02.288Z,1.30
2018-07-16T02:57:29.588Z,1.37
2018-07-16T02:59:56.847Z,1.80
2018-07-16T03:02:24.188Z,1.57
2018-07-16T03:04:51.493Z,1.60
2018-07-16T03:07:18.800Z,1.57
2018-07-16T03:09:46.943Z,1.70
2018-07-16T03:12:14.361Z,1.40
2018-07-16T03:14:43.622Z,1.60
2018-07-16T03:17:11.118Z,1.70
2018-07-16T03:19:39.961Z,1.77
2018-07-16T03:22:09.014Z,1.50
2018-07-16T03:24:37.680Z,1.57
2018-07-16T03:27:05.067Z,1.80
2018-07-16T03:29:33.109Z,1.60
2018-07-16T03:32:00.449Z,1.50
2018-07-16T03:34:28.518Z,1.50
2018-07-16T03:36:55.896Z,1.60
2018-07-16T03:39:23.265Z,1.60
2018-07-16T03:41:50.587Z,1.50
2018-07-16T03:44:17.897Z,1.40
2018-07-16T03:46:45.299Z,2.00
2018-07-16T03:49:12.693Z,1.77
2018-07-16T03:51:40.015Z,1.60
2018-07-16T03:54:07.326Z,2.10
2018-07-16T03:56:35.607Z,1.73
2018-07-16T03:59:02.974Z,1.50
2018-07-16T04:01:30.401Z,1.70
2018-07-16T04:03:57.763Z,1.80
2018-07-16T04:06:25.044Z,2.17
2018-07-16T04:08:52.374Z,1.40
2018-07-16T04:11:19.712Z,1.30
2018-07-16T04:13:47.100Z,1.30
2018-07-16T04:16:14.960Z,1.57
2018-07-16T04:18:42.325Z,1.67
2018-07-16T04:21:09.645Z,1.73
2018-07-16T04:23:37.064Z,2.10
2018-07-16T04:26:04.405Z,1.70
2018-07-16T04:28:31.746Z,1.63
2018-07-16T04:30:59.476Z,1.63
2018-07-16T04:33:27.307Z,1.57
2018-07-16T04:35:54.621Z,1.60
2018-07-16T04:38:22.046Z,1.63
2018-07-16T04:40:49.550Z,2.10
2018-07-16T04:43:16.929Z,1.70
2018-07-16T04:45:44.583Z,1.90
2018-07-16T04:48:11.910Z,1.60
2018-07-16T04:50:39.265Z,1.43
2018-07-16T04:53:06.628Z,1.60
2018-07-16T04:55:34.042Z,1.80
2018-07-16T04:58:01.393Z,2.40
2018-07-16T05:00:29.393Z,1.60
2018-07-16T05:02:56.740Z,1.70
2018-07-16T05:05:24.107Z,1.60
2018-07-16T05:07:51.446Z,1.60
2018-07-16T05:10:18.757Z,1.70
2018-07-16T05:12:46.067Z,1.73
2018-07-16T05:15:13.652Z,1.40
2018-07-16T05:17:40.950Z,1.47
2018-07-16T05:20:08.297Z,1.80
2018-07-16T05:22:35.621Z,1.97
2018-07-16T05:25:03.575Z,1.70
2018-07-16T05:27:30.976Z,1.70
2018-07-16T05:29:58.331Z,1.50
2018-07-16T05:32:25.899Z,1.80
2018-07-16T05:34:53.089Z,1.77
2018-07-16T05:37:20.444Z,1.70
2018-07-16T05:39:47.731Z,2.20
2018-07-16T05:42:16.482Z,1.70
2018-07-16T05:44:43.817Z,1.93
2018-07-16T05:47:11.387Z,1.87
2018-07-16T05:49:38.662Z,1.70
2018-07-16T05:52:06.067Z,2.10
2018-07-16T05:54:33.549Z,2.03
2018-07-16T05:57:00.924Z,2.10
2018-07-16T05:59:28.226Z,2.10
2018-07-16T06:01:55.510Z,2.30
2018-07-16T06:04:23.606Z,1.80
2018-07-16T06:06:50.888Z,2.07
2018-07-16T06:09:18.217Z,2.20
2018-07-16T06:11:45.577Z,2.50
2018-07-16T06:14:13.026Z,2.00
2018-07-16T06:16:40.427Z,2.10
2018-07-16T06:19:07.698Z,2.47
2018-07-16T06:21:34.980Z,2.20
2018-07-16T06:24:02.382Z,2.40
2018-07-16T06:26:29.673Z,2.30
2018-07-16T06:28:57.026Z,2.13
2018-07-16T06:31:24.387Z,3.10
2018-07-16T06:33:51.746Z,2.63
2018-07-16T06:36:19.132Z,3.00
2018-07-16T06:38:46.577Z,3.27
2018-07-16T06:41:14.303Z,2.70
2018-07-16T06:43:41.792Z,3.17
2018-07-16T06:46:09.185Z,2.80
2018-07-16T06:48:37.267Z,2.70
2018-07-16T06:51:05.326Z,3.13
2018-07-16T06:53:32.716Z,3.03
2018-07-16T06:56:00.070Z,2.83
2018-07-16T06:58:27.394Z,3.10
2018-07-16T07:00:54.766Z,3.53
2018-07-16T07:03:22.163Z,2.80
2018-07-16T07:05:49.534Z,3.50
2018-07-16T07:08:16.751Z,2.60
2018-07-16T07:10:44.080Z,3.10
2018-07-16T07:13:12.172Z,2.60
2018-07-16T07:15:40.127Z,3.33
2018-07-16T07:18:07.490Z,2.90
2018-07-16T07:20:34.863Z,2.90
2018-07-16T07:23:02.233Z,3.20
2018-07-16T07:25:29.629Z,2.87
2018-07-16T07:27:57.056Z,3.00
2018-07-16T07:30:24.455Z,2.90
2018-07-16T07:32:51.902Z,2.40
2018-07-16T07:35:20.064Z,2.53
2018-07-16T07:37:47.607Z,2.83
2018-07-16T07:40:15.667Z,2.40
2018-07-16T07:42:43.072Z,2.50
2018-07-16T07:45:10.618Z,3.30
2018-07-16T07:47:39.119Z,2.70
2018-07-16T07:50:06.515Z,2.63
2018-07-16T07:52:34.425Z,2.90
2018-07-16T07:55:02.099Z,3.20
2018-07-16T07:57:29.241Z,3.12
2018-07-16T07:59:56.685Z,3.00
2018-07-16T08:02:24.065Z,3.25
2018-07-16T08:04:52.055Z,3.33
2018-07-16T08:07:19.363Z,3.33
2018-07-16T08:09:46.829Z,3.02
2018-07-16T08:12:14.440Z,2.85
2018-07-16T08:14:43.102Z,3.05
2018-07-16T08:17:10.624Z,2.55
2018-07-16T08:19:37.946Z,2.70
2018-07-16T08:22:05.292Z,3.17
2018-07-16T08:24:32.607Z,2.75
2018-07-16T08:27:00.111Z,2.98
2018-07-16T08:29:27.436Z,2.87
2018-07-16T08:32:01.493Z,2.58
2018-07-16T08:34:28.854Z,2.58
2018-07-16T08:36:56.195Z,2.72
2018-07-16T08:39:23.602Z,2.20
2018-07-16T08:41:50.909Z,2.33
2018-07-16T08:44:18.255Z,2.10
2018-07-16T08:46:45.562Z,2.52
2018-07-16T08:49:13.025Z,2.85
2018-07-16T08:51:40.332Z,2.58
2018-07-16T08:54:07.666Z,2.70
2018-07-16T08:56:35.020Z,2.60
2018-07-16T08:59:02.969Z,2.62
2018-07-16T09:01:30.294Z,2.70
2018-07-16T09:03:57.601Z,3.00
2018-07-16T09:06:24.908Z,3.00
2018-07-16T09:08:52.227Z,2.90
2018-07-16T09:11:19.634Z,3.55
2018-07-16T09:13:46.987Z,4.20
2018-07-16T09:16:15.020Z,4.55
2018-07-16T09:18:42.331Z,4.10
2018-07-16T09:21:10.368Z,4.37
2018-07-16T09:23:37.706Z,4.35
2018-07-16T09:26:05.105Z,4.03
2018-07-16T09:28:32.388Z,4.35
2018-07-16T09:31:00.594Z,3.98
2018-07-16T09:33:27.867Z,4.67
2018-07-16T09:35:55.338Z,4.47
2018-07-16T09:38:22.914Z,4.67
2018-07-16T09:40:50.327Z,4.75
2018-07-16T09:43:17.630Z,4.50
2018-07-16T09:45:45.104Z,4.25
2018-07-16T09:48:12.474Z,4.42
2018-07-16T09:50:39.786Z,5.00
2018-07-16T09:53:07.191Z,5.10
2018-07-16T09:55:34.503Z,5.05
2018-07-16T09:58:01.931Z,4.67
2018-07-16T10:00:34.750Z,4.37
2018-07-16T10:03:04.355Z,4.40
2018-07-16T10:05:31.679Z,4.25
2018-07-16T10:07:58.992Z,4.45
2018-07-16T10:10:26.337Z,4.37
2018-07-16T10:12:53.700Z,4.87
2018-07-16T10:15:21.028Z,4.87
2018-07-16T10:17:48.365Z,4.40
2018-07-16T10:20:16.345Z,4.28
2018-07-16T10:22:43.693Z,4.50
2018-07-16T10:25:11.083Z,4.60
2018-07-16T10:27:38.480Z,4.83
2018-07-16T10:30:08.109Z,4.80
2018-07-16T10:32:35.590Z,4.40
2018-07-16T10:35:02.954Z,4.95
2018-07-16T10:37:30.370Z,5.22
2018-07-16T10:39:57.696Z,4.12
2018-07-16T10:42:25.132Z,4.62
2018-07-16T10:44:52.527Z,4.75
2018-07-16T10:47:19.910Z,4.50
2018-07-16T10:49:47.331Z,4.70
2018-07-16T10:52:14.711Z,4.05
2018-07-16T10:54:43.580Z,4.58
2018-07-16T10:57:12.050Z,5.25
2018-07-16T10:59:39.439Z,4.58
2018-07-16T11:02:06.708Z,4.60
2018-07-16T11:04:34.040Z,4.97
2018-07-16T11:07:02.326Z,5.22
2018-07-16T11:09:29.634Z,3.95
2018-07-16T11:11:56.945Z,4.50
2018-07-16T11:14:24.276Z,4.72
2018-07-16T11:16:51.577Z,4.10
2018-07-16T11:19:18.899Z,4.45
2018-07-16T11:21:46.274Z,4.58
2018-07-16T11:24:13.786Z,4.60
2018-07-16T11:26:41.087Z,4.30
2018-07-16T11:29:08.490Z,4.17
2018-07-16T11:31:35.845Z,4.40
2018-07-16T11:34:03.190Z,3.95
2018-07-16T11:36:30.532Z,4.80
2018-07-16T11:38:57.866Z,4.28
2018-07-16T11:41:25.243Z,4.00
2018-07-16T11:43:52.546Z,4.90
2018-07-16T11:46:19.967Z,4.55
2018-07-16T11:48:47.183Z,4.25
2018-07-16T11:51:16.539Z,4.80
2018-07-16T11:53:43.852Z,4.33
2018-07-16T11:56:11.309Z,4.53
2018-07-16T11:58:38.636Z,3.83
2018-07-16T12:01:05.951Z,4.10
2018-07-16T12:03:33.310Z,4.53
2018-07-16T12:06:03.564Z,5.03
2018-07-16T12:08:30.931Z,4.05
2018-07-16T12:10:58.272Z,3.45
2018-07-16T12:13:25.625Z,4.17
2018-07-16T12:15:52.949Z,3.92
2018-07-16T12:18:20.276Z,3.92
2018-07-16T12:20:47.586Z,3.37
2018-07-16T12:23:15.016Z,4.12
2018-07-16T12:25:42.314Z,3.40
2018-07-16T12:28:10.185Z,3.20
2018-07-16T12:30:37.459Z,3.52
2018-07-16T12:33:05.472Z,3.70
2018-07-16T12:35:32.787Z,3.62
2018-07-16T12:38:00.705Z,3.55
2018-07-16T12:40:28.048Z,3.87
2018-07-16T12:42:55.943Z,3.80
2018-07-16T12:45:29.995Z,4.53
2018-07-16T12:47:57.445Z,3.52
2018-07-16T12:50:24.749Z,3.40
2018-07-16T12:52:52.077Z,3.75
2018-07-16T12:55:19.362Z,3.17
2018-07-16T12:57:46.717Z,3.30
2018-07-16T13:00:14.078Z,3.50
2018-07-16T13:02:41.670Z,3.30
2018-07-16T13:05:08.995Z,2.33
2018-07-16T13:07:36.315Z,2.95
2018-07-16T13:10:03.785Z,3.70
2018-07-16T13:12:31.089Z,2.90
2018-07-16T13:14:58.421Z,2.85
2018-07-16T13:17:25.720Z,3.20
2018-07-16T13:19:53.099Z,3.52
2018-07-16T13:22:20.434Z,3.20
2018-07-16T13:24:47.790Z,3.60
2018-07-16T13:27:15.130Z,3.22
2018-07-16T13:29:42.634Z,3.40
2018-07-16T13:32:10.120Z,3.67
2018-07-16T13:34:37.446Z,3.37
2018-07-16T13:37:04.957Z,3.40
2018-07-16T13:39:32.312Z,3.30
2018-07-16T13:41:59.655Z,4.00
2018-07-16T13:44:26.992Z,3.22
2018-07-16T13:46:54.304Z,3.47
2018-07-16T13:49:21.589Z,3.30
2018-07-16T13:51:48.977Z,3.12
2018-07-16T13:54:17.976Z,3.13
2018-07-16T13:56:45.310Z,3.13
2018-07-16T13:59:12.687Z,2.70
2018-07-16T14:01:40.026Z,2.42
2018-07-16T14:04:07.626Z,2.58
2018-07-16T14:06:34.928Z,2.80
2018-07-16T14:09:02.347Z,2.47
2018-07-16T14:11:29.669Z,2.70
2018-07-16T14:13:56.999Z,2.60
2018-07-16T14:16:24.343Z,2.80
2018-07-16T14:18:51.654Z,2.57
2018-07-16T14:21:18.967Z,2.62
2018-07-16T14:23:46.286Z,2.37
2018-07-16T14:26:13.636Z,2.70
2018-07-16T14:28:40.985Z,2.30
2018-07-16T14:31:08.320Z,2.45
2018-07-16T14:33:35.732Z,2.42
2018-07-16T14:36:03.083Z,2.02
2018-07-16T14:38:30.373Z,2.55
2018-07-16T14:40:58.443Z,2.33
2018-07-16T14:43:25.811Z,1.98
2018-07-16T14:45:53.180Z,1.82
2018-07-16T14:48:20.532Z,2.08
2018-07-16T14:50:47.970Z,2.22
2018-07-16T14:53:17.497Z,2.37
2018-07-16T14:55:44.832Z,1.92
2018-07-16T14:58:12.765Z,1.90
2018-07-16T15:00:40.102Z,1.90
2018-07-16T15:03:07.531Z,2.10
2018-07-16T15:05:35.411Z,1.70
2018-07-16T15:08:03.364Z,2.10
2018-07-16T15:10:30.725Z,1.90
2018-07-16T15:12:58.528Z,2.65
2018-07-16T15:15:26.799Z,2.25
2018-07-16T15:17:54.155Z,1.95
2018-07-16T15:20:21.514Z,1.52
2018-07-16T15:22:48.730Z,2.30
2018-07-16T15:25:16.143Z,2.22
2018-07-16T15:27:43.397Z,2.50
2018-07-16T15:30:10.646Z,3.90
2018-07-16T15:32:37.860Z,2.65
2018-07-16T15:35:05.153Z,2.20
2018-07-16T15:37:32.406Z,2.47
2018-07-16T15:39:59.638Z,3.00
2018-07-16T15:42:26.838Z,2.20
2018-07-16T15:44:54.054Z,2.65
2018-07-16T15:47:21.423Z,2.70
2018-07-16T15:49:48.674Z,2.85
2018-07-16T15:52:15.974Z,2.58
2018-07-16T15:54:43.308Z,2.77
2018-07-16T15:57:10.652Z,2.45
2018-07-16T15:59:38.007Z,2.55
2018-07-16T16:02:05.354Z,2.87
2018-07-16T16:04:33.207Z,3.12
2018-07-16T16:07:00.550Z,3.40
2018-07-16T16:09:27.913Z,2.90
2018-07-16T16:11:55.289Z,3.35
2018-07-16T16:14:22.618Z,2.50
2018-07-16T16:16:49.945Z,3.12
2018-07-16T16:19:17.273Z,3.05
2018-07-16T16:21:44.674Z,3.25
2018-07-16T16:24:12.031Z,3.35
2018-07-16T16:26:39.421Z,3.47
2018-07-16T16:29:06.827Z,3.50
2018-07-16T16:31:34.174Z,3.25
2018-07-16T16:34:02.117Z,3.30
2018-07-16T16:36:29.524Z,3.27
2018-07-16T16:38:56.912Z,3.30
2018-07-16T16:41:24.294Z,3.12
2018-07-16T16:43:51.590Z,3.05
2018-07-16T16:46:19.331Z,3.77
2018-07-16T16:48:47.478Z,3.00
2018-07-16T16:51:15.361Z,2.95
2018-07-16T16:53:43.218Z,3.42
2018-07-16T16:56:10.602Z,3.30
2018-07-16T16:58:37.925Z,2.72
2018-07-16T17:01:05.287Z,3.92
2018-07-16T17:03:32.639Z,2.92
2018-07-16T17:06:00.007Z,2.90
2018-07-16T17:08:27.395Z,2.98
2018-07-16T17:10:54.761Z,3.05
2018-07-16T17:13:22.146Z,2.75
2018-07-16T17:15:49.530Z,3.22
2018-07-16T17:18:16.872Z,3.33
2018-07-16T17:20:44.235Z,2.75
2018-07-16T17:23:11.625Z,2.80
2018-07-16T17:25:38.923Z,3.30
2018-07-16T17:28:06.242Z,3.72
2018-07-16T17:30:33.665Z,2.98
2018-07-16T17:33:02.058Z,2.92
2018-07-16T17:35:29.944Z,3.30
2018-07-16T17:37:57.316Z,3.58
2018-07-16T17:40:24.752Z,2.90
2018-07-16T17:42:52.649Z,2.90
2018-07-16T17:45:20.763Z,2.50
2018-07-16T17:47:48.095Z,3.33
2018-07-16T17:50:16.204Z,3.02
2018-07-16T17:52:43.679Z,3.17
2018-07-16T17:55:11.179Z,3.15
2018-07-16T17:57:38.520Z,2.85
2018-07-16T18:00:05.901Z,2.83
2018-07-16T18:02:33.476Z,3.00
2018-07-16T18:05:00.875Z,3.02
2018-07-16T18:07:32.453Z,2.98
2018-07-16T18:10:00.130Z,3.05
2018-07-16T18:12:27.764Z,3.60
2018-07-16T18:14:55.351Z,3.15
2018-07-16T18:17:22.858Z,3.20
2018-07-16T18:19:50.218Z,3.50
2018-07-16T18:22:18.165Z,3.40
2018-07-16T18:24:45.762Z,3.37
2018-07-16T18:27:13.233Z,3.50
2018-07-16T18:29:40.757Z,3.87
2018-07-16T18:32:08.992Z,4.22
2018-07-16T18:34:37.375Z,3.52
2018-07-16T18:37:05.251Z,3.43
2018-07-16T18:39:32.748Z,3.53
2018-07-16T18:42:00.450Z,3.50
2018-07-16T18:44:28.095Z,3.43
2018-07-16T18:46:56.226Z,3.33
2018-07-16T18:49:23.996Z,3.60
2018-07-16T18:51:51.462Z,3.70
2018-07-16T18:54:19.030Z,3.30
2018-07-16T18:56:47.798Z,3.30
2018-07-16T18:59:15.321Z,3.77
2018-07-16T19:01:42.791Z,3.67
2018-07-16T19:04:11.203Z,3.67
2018-07-16T19:06:40.822Z,3.93
2018-07-16T19:09:09.434Z,4.03
2018-07-16T19:11:38.871Z,3.53
2018-07-16T19:14:06.557Z,3.87
2018-07-16T19:16:35.197Z,3.67
2018-07-16T19:19:03.427Z,3.80
2018-07-16T19:21:30.874Z,4.17
2018-07-16T19:23:58.374Z,3.70
2018-07-16T19:26:25.833Z,4.30
2018-07-16T19:28:53.333Z,3.67
2018-07-16T19:31:22.162Z,3.73
2018-07-16T19:33:50.945Z,4.00
2018-07-16T19:36:19.084Z,4.67
2018-07-16T19:38:46.709Z,4.00
2018-07-16T19:41:14.155Z,4.40
2018-07-16T19:43:41.600Z,4.33
2018-07-16T19:46:10.219Z,3.70
2018-07-16T19:48:37.817Z,4.40
2018-07-16T19:51:06.376Z,4.00
2018-07-16T19:53:34.808Z,3.97
2018-07-16T19:56:02.992Z,3.63
2018-07-16T19:58:31.521Z,4.13
2018-07-16T20:00:59.860Z,3.70
2018-07-16T20:03:28.170Z,4.20
2018-07-16T20:05:55.715Z,4.17
2018-07-16T20:08:23.252Z,4.57
2018-07-16T20:10:50.629Z,3.90
2018-07-16T20:13:18.161Z,5.00
2018-07-16T20:15:45.672Z,4.00
2018-07-16T20:18:12.897Z,4.33
2018-07-16T20:20:51.789Z,4.50
2018-07-16T20:23:19.221Z,4.33
2018-07-16T20:25:46.941Z,4.53
2018-07-16T20:28:14.949Z,4.57
2018-07-16T20:30:42.402Z,3.97
2018-07-16T20:33:10.176Z,4.87
2018-07-16T20:35:37.565Z,4.63
2018-07-16T20:38:05.114Z,4.43
2018-07-16T20:40:35.408Z,4.07
2018-07-16T20:43:03.212Z,4.57
2018-07-16T20:45:30.796Z,4.97
2018-07-16T20:47:58.435Z,4.63
2018-07-16T20:50:25.932Z,4.00
2018-07-16T20:52:53.194Z,4.30
2018-07-16T20:55:20.435Z,4.27
2018-07-16T20:57:47.716Z,4.27
2018-07-16T21:00:14.952Z,4.40
2018-07-16T21:02:42.198Z,4.90
2018-07-16T21:05:09.422Z,5.30
2018-07-16T21:07:36.975Z,4.53
2018-07-16T21:10:04.555Z,4.20
2018-07-16T21:12:31.868Z,4.87
2018-07-16T21:14:59.116Z,4.80
2018-07-16T21:17:26.377Z,4.90
2018-07-16T21:19:53.647Z,4.53
2018-07-16T21:22:20.973Z,5.13
2018-07-16T21:24:48.209Z,4.97
2018-07-16T21:27:15.476Z,4.53
2018-07-16T21:29:42.735Z,4.80
2018-07-16T21:32:10.092Z,4.87
2018-07-16T21:34:37.350Z,4.80
2018-07-16T21:37:04.632Z,4.80
2018-07-16T21:39:31.938Z,4.43
2018-07-16T21:41:59.174Z,4.77
2018-07-16T21:44:26.430Z,5.53
2018-07-16T21:46:53.707Z,5.07
2018-07-16T21:49:20.981Z,5.10
2018-07-16T21:51:48.222Z,5.20
2018-07-16T21:54:15.555Z,4.90
2018-07-16T21:56:42.771Z,5.17
2018-07-16T21:59:10.002Z,5.30
2018-07-16T22:01:37.298Z,5.13
2018-07-16T22:04:04.663Z,5.50
2018-07-16T22:06:31.935Z,5.70
2018-07-16T22:08:59.163Z,5.23
2018-07-16T22:11:26.444Z,5.67
2018-07-16T22:13:53.667Z,5.03
2018-07-16T22:16:20.986Z,5.13
2018-07-16T22:18:48.239Z,4.87
2018-07-16T22:21:15.602Z,5.50
2018-07-16T22:23:42.822Z,5.40
2018-07-16T22:26:10.075Z,5.50
2018-07-16T22:28:37.304Z,5.90
2018-07-16T22:31:04.551Z,5.63
2018-07-16T22:33:31.806Z,5.30
2018-07-16T22:35:59.094Z,6.00
2018-07-16T22:38:26.324Z,5.50
2018-07-16T22:40:53.595Z,5.90
2018-07-16T22:43:20.865Z,6.50
2018-07-16T22:45:48.086Z,6.00
2018-07-16T22:48:15.374Z,5.40
2018-07-16T22:50:42.605Z,5.40
2018-07-16T22:53:09.855Z,5.93
2018-07-16T22:55:37.113Z,6.63
2018-07-16T22:58:04.399Z,5.83
2018-07-16T23:00:31.654Z,5.57
2018-07-16T23:02:58.926Z,5.70
2018-07-16T23:05:26.210Z,5.67
2018-07-16T23:07:54.440Z,5.53
2018-07-16T23:10:21.707Z,5.00
2018-07-16T23:12:48.965Z,5.10
2018-07-16T23:15:16.234Z,4.90
2018-07-16T23:17:43.472Z,5.90
2018-07-16T23:20:10.732Z,5.77
2018-07-16T23:22:46.922Z,5.47
2018-07-16T23:25:14.176Z,5.63
2018-07-16T23:27:41.412Z,5.87
2018-07-16T23:30:08.689Z,5.43
2018-07-16T23:32:35.920Z,5.60
2018-07-16T23:35:03.202Z,5.67
2018-07-16T23:37:30.502Z,4.90
2018-07-16T23:39:57.774Z,5.87
2018-07-16T23:42:24.996Z,5.67
2018-07-16T23:44:52.265Z,6.20
2018-07-16T23:47:19.998Z,5.67
2018-07-16T23:49:47.245Z,5.90
2018-07-16T23:52:14.550Z,5.83
2018-07-16T23:54:41.823Z,5.30
2018-07-16T23:57:09.058Z,6.33
2018-07-16T23:59:36.332Z,5.50
